Terminal Aerodrome Forecast
Issued by NWS

Home | Current Version | Previous Version | Text Only | Print | Product List | Glossary On
Versions: 1 2 3 4 5 6 7 8 9 10 11 12 13 14 15
328
FTUS46 KSEW 080542
TAFBFI
TAF
KBFI 080542Z 0806/0906 VRB03KT P6SM BKN200
     FM081800 01005KT P6SM SCT130 OVC200
     FM082100 03009KT P6SM FEW050 OVC130
     FM090300 10005KT P6SM -SN SCT028 OVC050=

USA.gov is the U.S. government's official web portal to all federal, state and local government web resources and services.